sensor_id;sensor_type;location;lat;lon;timestamp;pressure;altitude;pressure_sealevel;temperature;humidity
61870;BME280;47810;42.264;23.826;2023-05-19T00:00:42;93924.94;;;10.62;85.52
61870;BME280;47810;42.264;23.826;2023-05-19T00:03:09;93923.13;;;10.35;86.56
61870;BME280;47810;42.264;23.826;2023-05-19T00:05:38;93927.25;;;10.25;87.47
61870;BME280;47810;42.264;23.826;2023-05-19T00:08:09;93916.72;;;10.25;88.63
61870;BME280;47810;42.264;23.826;2023-05-19T00:10:35;93924.16;;;10.04;88.00
61870;BME280;47810;42.264;23.826;2023-05-19T00:13:01;93929.53;;;10.17;88.62
61870;BME280;47810;42.264;23.826;2023-05-19T00:15:27;93932.19;;;10.31;88.37
61870;BME280;47810;42.264;23.826;2023-05-19T00:17:52;93926.06;;;10.31;87.33
61870;BME280;47810;42.264;23.826;2023-05-19T00:20:20;93934.59;;;10.20;87.73
61870;BME280;47810;42.264;23.826;2023-05-19T00:22:45;93933.31;;;10.13;87.59
61870;BME280;47810;42.264;23.826;2023-05-19T00:25:11;93934.59;;;10.20;87.33
61870;BME280;47810;42.264;23.826;2023-05-19T00:27:36;93932.81;;;10.20;88.21
61870;BME280;47810;42.264;23.826;2023-05-19T00:30:02;93937.09;;;10.09;89.01
61870;BME280;47810;42.264;23.826;2023-05-19T00:32:28;93927.66;;;10.19;88.22
61870;BME280;47810;42.264;23.826;2023-05-19T00:34:53;93926.50;;;10.23;87.87
61870;BME280;47810;42.264;23.826;2023-05-19T00:37:19;93926.34;;;10.26;87.32
61870;BME280;47810;42.264;23.826;2023-05-19T00:39:44;93929.53;;;10.17;87.80
61870;BME280;47810;42.264;23.826;2023-05-19T00:42:10;93925.66;;;10.37;87.27
61870;BME280;47810;42.264;23.826;2023-05-19T00:44:36;93924.34;;;10.30;87.44
61870;BME280;47810;42.264;23.826;2023-05-19T00:47:05;93919.09;;;10.15;87.86
61870;BME280;47810;42.264;23.826;2023-05-19T00:49:30;93917.09;;;10.19;87.66
61870;BME280;47810;42.264;23.826;2023-05-19T00:51:56;93909.28;;;10.32;87.30
61870;BME280;47810;42.264;23.826;2023-05-19T00:54:22;93910.88;;;10.34;86.99
61870;BME280;47810;42.264;23.826;2023-05-19T00:56:48;93907.56;;;10.16;88.02
61870;BME280;47810;42.264;23.826;2023-05-19T00:59:14;93908.41;;;10.17;88.50
61870;BME280;47810;42.264;23.826;2023-05-19T01:01:40;93907.50;;;10.18;88.07
61870;BME280;47810;42.264;23.826;2023-05-19T01:04:05;93900.88;;;10.25;87.90
61870;BME280;47810;42.264;23.826;2023-05-19T01:06:34;93896.75;;;10.21;86.84
61870;BME280;47810;42.264;23.826;2023-05-19T01:09:02;93907.59;;;10.31;87.09
61870;BME280;47810;42.264;23.826;2023-05-19T01:11:28;93914.06;;;10.39;87.15
61870;BME280;47810;42.264;23.826;2023-05-19T01:13:53;93905.47;;;10.50;87.55
61870;BME280;47810;42.264;23.826;2023-05-19T01:27:04;93898.88;;;10.43;87.65
61870;BME280;47810;42.264;23.826;2023-05-19T01:32:22;93914.19;;;10.65;85.11
61870;BME280;47810;42.264;23.826;2023-05-19T01:34:48;93907.59;;;10.85;84.05
61870;BME280;47810;42.264;23.826;2023-05-19T01:37:15;93904.41;;;10.53;85.08
61870;BME280;47810;42.264;23.826;2023-05-19T01:39:45;93900.47;;;10.45;86.18
61870;BME280;47810;42.264;23.826;2023-05-19T01:42:12;93902.72;;;10.52;85.92
61870;BME280;47810;42.264;23.826;2023-05-19T01:44:38;93905.22;;;10.40;86.24
61870;BME280;47810;42.264;23.826;2023-05-19T01:47:04;93895.56;;;10.54;85.79
61870;BME280;47810;42.264;23.826;2023-05-19T01:49:30;93895.91;;;10.62;85.41
61870;BME280;47810;42.264;23.826;2023-05-19T01:51:55;93899.81;;;10.56;85.75
61870;BME280;47810;42.264;23.826;2023-05-19T01:54:21;93893.44;;;10.59;85.68
61870;BME280;47810;42.264;23.826;2023-05-19T01:57:02;93900.66;;;10.57;86.03
61870;BME280;47810;42.264;23.826;2023-05-19T01:59:46;93909.72;;;10.38;87.14
61870;BME280;47810;42.264;23.826;2023-05-19T02:02:23;93916.31;;;10.45;87.27
61870;BME280;47810;42.264;23.826;2023-05-19T02:04:53;93915.38;;;10.46;87.57
61870;BME280;47810;42.264;23.826;2023-05-19T02:07:26;93917.81;;;10.49;87.56
61870;BME280;47810;42.264;23.826;2023-05-19T02:10:05;93925.13;;;10.59;86.97
61870;BME280;47810;42.264;23.826;2023-05-19T02:17:29;93932.31;;;10.57;87.00
61870;BME280;47810;42.264;23.826;2023-05-19T02:20:01;93921.75;;;10.57;87.36
61870;BME280;47810;42.264;23.826;2023-05-19T02:22:26;93930.34;;;10.46;88.11
61870;BME280;47810;42.264;23.826;2023-05-19T02:24:52;93922.50;;;10.59;87.68
61870;BME280;47810;42.264;23.826;2023-05-19T02:27:18;93924.47;;;10.69;87.71
61870;BME280;47810;42.264;23.826;2023-05-19T02:29:44;93927.97;;;10.56;87.23
61870;BME280;47810;42.264;23.826;2023-05-19T02:32:10;93935.69;;;10.59;87.85
61870;BME280;47810;42.264;23.826;2023-05-19T02:34:35;93927.03;;;10.57;87.75
61870;BME280;47810;42.264;23.826;2023-05-19T02:37:01;93931.94;;;10.63;87.38
61870;BME280;47810;42.264;23.826;2023-05-19T02:39:27;93937.63;;;10.42;88.44
61870;BME280;47810;42.264;23.826;2023-05-19T02:41:55;93943.41;;;10.62;88.30
61870;BME280;47810;42.264;23.826;2023-05-19T02:44:21;93939.28;;;10.58;87.92
61870;BME280;47810;42.264;23.826;2023-05-19T02:46:46;93933.00;;;10.46;88.66
61870;BME280;47810;42.264;23.826;2023-05-19T02:49:12;93945.72;;;10.54;87.52
61870;BME280;47810;42.264;23.826;2023-05-19T02:51:38;93944.03;;;10.38;88.18
61870;BME280;47810;42.264;23.826;2023-05-19T02:54:04;93946.44;;;10.56;87.91
61870;BME280;47810;42.264;23.826;2023-05-19T02:56:29;93949.91;;;10.29;88.80
61870;BME280;47810;42.264;23.826;2023-05-19T02:58:55;93946.78;;;10.08;89.16
61870;BME280;47810;42.264;23.826;2023-05-19T03:01:20;93943.09;;;10.11;89.16
61870;BME280;47810;42.264;23.826;2023-05-19T03:03:47;93939.88;;;10.20;88.97
61870;BME280;47810;42.264;23.826;2023-05-19T03:06:12;93937.81;;;10.25;89.32
61870;BME280;47810;42.264;23.826;2023-05-19T03:08:38;93940.66;;;10.36;88.89
61870;BME280;47810;42.264;23.826;2023-05-19T03:11:04;93945.84;;;10.38;88.82
61870;BME280;47810;42.264;23.826;2023-05-19T03:13:30;93954.78;;;10.35;89.10
61870;BME280;47810;42.264;23.826;2023-05-19T03:15:56;93950.34;;;10.36;89.46
61870;BME280;47810;42.264;23.826;2023-05-19T03:18:23;93950.56;;;10.33;89.26
61870;BME280;47810;42.264;23.826;2023-05-19T03:20:49;93954.78;;;10.35;89.08
61870;BME280;47810;42.264;23.826;2023-05-19T03:23:15;93966.13;;;10.37;88.91
61870;BME280;47810;42.264;23.826;2023-05-19T03:25:40;93961.94;;;10.33;88.91
61870;BME280;47810;42.264;23.826;2023-05-19T03:28:06;93960.16;;;10.48;88.08
61870;BME280;47810;42.264;23.826;2023-05-19T03:30:33;93960.25;;;10.32;88.61
61870;BME280;47810;42.264;23.826;2023-05-19T03:32:58;93967.22;;;10.33;88.88
61870;BME280;47810;42.264;23.826;2023-05-19T03:35:26;93957.94;;;10.28;89.56
61870;BME280;47810;42.264;23.826;2023-05-19T03:37:51;93960.06;;;10.35;89.30
61870;BME280;47810;42.264;23.826;2023-05-19T03:40:17;93968.56;;;10.40;89.24
61870;BME280;47810;42.264;23.826;2023-05-19T03:42:43;93963.28;;;10.40;89.47
61870;BME280;47810;42.264;23.826;2023-05-19T03:45:08;93956.88;;;10.30;89.43
61870;BME280;47810;42.264;23.826;2023-05-19T03:47:34;93960.63;;;10.12;90.52
61870;BME280;47810;42.264;23.826;2023-05-19T03:49:59;93951.59;;;10.30;89.40
61870;BME280;47810;42.264;23.826;2023-05-19T03:52:25;93961.75;;;10.22;90.05
61870;BME280;47810;42.264;23.826;2023-05-19T03:54:51;93951.78;;;10.27;90.38
61870;BME280;47810;42.264;23.826;2023-05-19T03:57:17;93958.66;;;10.15;91.19
61870;BME280;47810;42.264;23.826;2023-05-19T03:59:42;93968.28;;;10.31;90.31
61870;BME280;47810;42.264;23.826;2023-05-19T04:02:08;93966.19;;;10.36;90.58
61870;BME280;47810;42.264;23.826;2023-05-19T04:04:33;93961.72;;;10.65;89.37
61870;BME280;47810;42.264;23.826;2023-05-19T04:06:59;93976.84;;;10.48;89.68
61870;BME280;47810;42.264;23.826;2023-05-19T04:09:26;93970.38;;;10.67;90.03
61870;BME280;47810;42.264;23.826;2023-05-19T04:11:51;93971.81;;;10.58;90.30
61870;BME280;47810;42.264;23.826;2023-05-19T04:14:17;93976.31;;;10.70;89.37
61870;BME280;47810;42.264;23.826;2023-05-19T04:16:44;93980.75;;;10.70;89.26
61870;BME280;47810;42.264;23.826;2023-05-19T04:19:09;93966.41;;;10.74;89.62
61870;BME280;47810;42.264;23.826;2023-05-19T04:21:35;93978.25;;;10.81;89.47
61870;BME280;47810;42.264;23.826;2023-05-19T04:24:01;93977.81;;;10.75;89.46
61870;BME280;47810;42.264;23.826;2023-05-19T04:26:26;93980.56;;;10.73;89.39
61870;BME280;47810;42.264;23.826;2023-05-19T04:28:55;93993.91;;;10.84;88.91
61870;BME280;47810;42.264;23.826;2023-05-19T04:31:22;93990.22;;;10.87;89.44
61870;BME280;47810;42.264;23.826;2023-05-19T04:33:48;93994.75;;;10.85;89.20
61870;BME280;47810;42.264;23.826;2023-05-19T04:36:14;93993.84;;;10.71;88.05
61870;BME280;47810;42.264;23.826;2023-05-19T04:38:41;93984.06;;;11.01;87.63
61870;BME280;47810;42.264;23.826;2023-05-19T04:41:07;93989.44;;;10.99;87.95
61870;BME280;47810;42.264;23.826;2023-05-19T04:43:39;93988.75;;;11.10;89.67
61870;BME280;47810;42.264;23.826;2023-05-19T04:46:06;93992.91;;;11.14;88.88
61870;BME280;47810;42.264;23.826;2023-05-19T04:48:32;93989.75;;;11.22;88.43
61870;BME280;47810;42.264;23.826;2023-05-19T04:50:58;93984.50;;;11.34;88.94
61870;BME280;47810;42.264;23.826;2023-05-19T04:53:28;93983.91;;;11.56;89.47
61870;BME280;47810;42.264;23.826;2023-05-19T04:55:54;93986.59;;;11.69;88.10
61870;BME280;47810;42.264;23.826;2023-05-19T04:58:21;93991.94;;;11.95;88.82
61870;BME280;47810;42.264;23.826;2023-05-19T05:00:46;93989.16;;;12.22;88.46
61870;BME280;47810;42.264;23.826;2023-05-19T05:03:12;93994.22;;;12.38;89.04
61870;BME280;47810;42.264;23.826;2023-05-19T05:05:39;93996.25;;;12.47;84.32
61870;BME280;47810;42.264;23.826;2023-05-19T05:08:04;93992.72;;;12.59;82.00
61870;BME280;47810;42.264;23.826;2023-05-19T05:10:31;93993.09;;;12.78;80.97
61870;BME280;47810;42.264;23.826;2023-05-19T05:12:56;93998.69;;;12.87;82.52
61870;BME280;47810;42.264;23.826;2023-05-19T05:15:22;93993.81;;;12.80;83.36
61870;BME280;47810;42.264;23.826;2023-05-19T05:17:49;93995.81;;;12.90;83.46
61870;BME280;47810;42.264;23.826;2023-05-19T05:20:15;93991.31;;;13.03;83.63
61870;BME280;47810;42.264;23.826;2023-05-19T05:22:41;93986.94;;;13.15;82.58
61870;BME280;47810;42.264;23.826;2023-05-19T05:25:06;93987.91;;;13.14;83.65
61870;BME280;47810;42.264;23.826;2023-05-19T05:27:32;93981.31;;;13.19;80.33
61870;BME280;47810;42.264;23.826;2023-05-19T05:29:58;93980.94;;;13.37;80.80
61870;BME280;47810;42.264;23.826;2023-05-19T05:32:24;93981.03;;;13.35;77.31
61870;BME280;47810;42.264;23.826;2023-05-19T05:34:50;93987.38;;;13.45;74.58
61870;BME280;47810;42.264;23.826;2023-05-19T05:37:15;93989.03;;;13.46;73.58
61870;BME280;47810;42.264;23.826;2023-05-19T05:39:41;93992.84;;;13.55;72.97
61870;BME280;47810;42.264;23.826;2023-05-19T05:42:06;94001.34;;;13.47;74.19
61870;BME280;47810;42.264;23.826;2023-05-19T05:44:33;93997.53;;;13.51;73.99
61870;BME280;47810;42.264;23.826;2023-05-19T05:47:00;94003.22;;;13.58;72.06
61870;BME280;47810;42.264;23.826;2023-05-19T05:49:26;94002.84;;;13.63;71.79
61870;BME280;47810;42.264;23.826;2023-05-19T05:51:51;94010.97;;;13.72;72.41
61870;BME280;47810;42.264;23.826;2023-05-19T05:54:17;94009.44;;;13.81;75.62
61870;BME280;47810;42.264;23.826;2023-05-19T05:56:43;94007.88;;;13.90;77.77
61870;BME280;47810;42.264;23.826;2023-05-19T05:59:08;94000.50;;;13.82;76.50
61870;BME280;47810;42.264;23.826;2023-05-19T06:01:34;94001.13;;;13.86;74.83
61870;BME280;47810;42.264;23.826;2023-05-19T06:04:00;94010.56;;;14.01;75.32
61870;BME280;47810;42.264;23.826;2023-05-19T06:06:31;94012.03;;;14.05;72.66
61870;BME280;47810;42.264;23.826;2023-05-19T06:08:57;94011.81;;;14.19;72.50
61870;BME280;47810;42.264;23.826;2023-05-19T06:11:22;94015.94;;;14.24;72.12
61870;BME280;47810;42.264;23.826;2023-05-19T06:13:49;94022.66;;;14.05;72.06
61870;BME280;47810;42.264;23.826;2023-05-19T06:16:14;94016.03;;;14.11;70.89
61870;BME280;47810;42.264;23.826;2023-05-19T06:18:40;94014.25;;;14.23;71.55
61870;BME280;47810;42.264;23.826;2023-05-19T06:21:05;94014.59;;;14.18;71.68
61870;BME280;47810;42.264;23.826;2023-05-19T06:23:31;94021.50;;;14.43;71.98
61870;BME280;47810;42.264;23.826;2023-05-19T06:25:57;94021.63;;;14.30;71.60
61870;BME280;47810;42.264;23.826;2023-05-19T06:28:22;94032.13;;;14.32;71.83
61870;BME280;47810;42.264;23.826;2023-05-19T06:30:48;94034.75;;;14.09;71.92
61870;BME280;47810;42.264;23.826;2023-05-19T06:33:13;94037.13;;;14.12;71.65
61870;BME280;47810;42.264;23.826;2023-05-19T06:35:39;94036.44;;;14.10;72.04
61870;BME280;47810;42.264;23.826;2023-05-19T06:38:04;94036.72;;;14.30;72.75
61870;BME280;47810;42.264;23.826;2023-05-19T06:40:30;94041.31;;;14.39;73.59
61870;BME280;47810;42.264;23.826;2023-05-19T06:42:56;94041.44;;;14.49;71.55
61870;BME280;47810;42.264;23.826;2023-05-19T06:45:22;94039.66;;;14.60;71.85
61870;BME280;47810;42.264;23.826;2023-05-19T06:47:49;94035.34;;;14.71;72.07
61870;BME280;47810;42.264;23.826;2023-05-19T06:50:14;94031.22;;;14.78;70.34
61870;BME280;47810;42.264;23.826;2023-05-19T06:52:40;94042.09;;;14.97;73.11
61870;BME280;47810;42.264;23.826;2023-05-19T06:55:06;94041.84;;;15.00;70.57
61870;BME280;47810;42.264;23.826;2023-05-19T06:57:31;94043.78;;;14.98;70.52
61870;BME280;47810;42.264;23.826;2023-05-19T06:59:57;94042.56;;;14.91;69.88
61870;BME280;47810;42.264;23.826;2023-05-19T07:02:23;94043.91;;;14.97;69.85
61870;BME280;47810;42.264;23.826;2023-05-19T07:04:49;94036.75;;;15.08;70.80
61870;BME280;47810;42.264;23.826;2023-05-19T07:07:16;94043.25;;;15.27;70.10
61870;BME280;47810;42.264;23.826;2023-05-19T07:09:42;94040.97;;;15.22;68.83
61870;BME280;47810;42.264;23.826;2023-05-19T07:12:08;94045.66;;;15.30;69.73
61870;BME280;47810;42.264;23.826;2023-05-19T07:14:34;94031.56;;;15.61;70.57
61870;BME280;47810;42.264;23.826;2023-05-19T07:17:01;94042.06;;;15.74;69.29
61870;BME280;47810;42.264;23.826;2023-05-19T07:19:28;94042.91;;;15.75;65.62
61870;BME280;47810;42.264;23.826;2023-05-19T07:21:53;94035.66;;;15.77;66.61
61870;BME280;47810;42.264;23.826;2023-05-19T07:24:21;94038.75;;;15.82;68.01
61870;BME280;47810;42.264;23.826;2023-05-19T07:26:46;94039.25;;;16.08;70.97
61870;BME280;47810;42.264;23.826;2023-05-19T07:29:13;94046.34;;;16.19;67.59
61870;BME280;47810;42.264;23.826;2023-05-19T07:31:39;94047.78;;;16.23;66.71
61870;BME280;47810;42.264;23.826;2023-05-19T07:34:04;94046.75;;;16.35;67.36
61870;BME280;47810;42.264;23.826;2023-05-19T07:36:30;94046.75;;;16.35;65.55
61870;BME280;47810;42.264;23.826;2023-05-19T07:38:56;94044.06;;;16.56;65.08
61870;BME280;47810;42.264;23.826;2023-05-19T07:41:21;94038.16;;;16.52;65.80
61870;BME280;47810;42.264;23.826;2023-05-19T07:43:47;94043.72;;;16.49;64.93
61870;BME280;47810;42.264;23.826;2023-05-19T07:46:13;94040.03;;;16.83;63.92
61870;BME280;47810;42.264;23.826;2023-05-19T07:48:38;94045.72;;;16.99;66.13
61870;BME280;47810;42.264;23.826;2023-05-19T07:51:04;94041.09;;;17.11;63.83
61870;BME280;47810;42.264;23.826;2023-05-19T07:53:30;94036.81;;;17.29;64.91
61870;BME280;47810;42.264;23.826;2023-05-19T07:55:55;94047.19;;;17.22;63.64
61870;BME280;47810;42.264;23.826;2023-05-19T07:58:21;94043.28;;;17.36;63.26
61870;BME280;47810;42.264;23.826;2023-05-19T08:00:47;94036.50;;;17.63;63.43
61870;BME280;47810;42.264;23.826;2023-05-19T08:03:12;94039.22;;;17.82;63.06
61870;BME280;47810;42.264;23.826;2023-05-19T08:05:41;94039.63;;;17.78;62.47
61870;BME280;47810;42.264;23.826;2023-05-19T08:08:07;94043.56;;;17.93;60.39
61870;BME280;47810;42.264;23.826;2023-05-19T08:10:33;94036.09;;;18.16;62.58
61870;BME280;47810;42.264;23.826;2023-05-19T08:12:59;94041.16;;;18.38;60.65
61870;BME280;47810;42.264;23.826;2023-05-19T08:15:24;94044.19;;;18.82;64.03
61870;BME280;47810;42.264;23.826;2023-05-19T08:17:50;94048.56;;;18.83;60.74
61870;BME280;47810;42.264;23.826;2023-05-19T08:20:16;94058.16;;;18.76;59.98
61870;BME280;47810;42.264;23.826;2023-05-19T08:22:41;94050.78;;;18.98;63.95
61870;BME280;47810;42.264;23.826;2023-05-19T08:25:07;94055.47;;;19.23;58.84
61870;BME280;47810;42.264;23.826;2023-05-19T08:27:33;94051.19;;;19.58;60.68
61870;BME280;47810;42.264;23.826;2023-05-19T08:29:59;94052.84;;;19.69;61.20
61870;BME280;47810;42.264;23.826;2023-05-19T08:32:25;94060.91;;;19.87;59.18
61870;BME280;47810;42.264;23.826;2023-05-19T08:34:50;94056.19;;;20.16;58.35
61870;BME280;47810;42.264;23.826;2023-05-19T08:37:17;94054.72;;;20.40;53.91
61870;BME280;47810;42.264;23.826;2023-05-19T08:39:45;94060.13;;;20.48;58.94
61870;BME280;47810;42.264;23.826;2023-05-19T08:42:11;94060.06;;;20.76;56.92
61870;BME280;47810;42.264;23.826;2023-05-19T08:44:36;94057.06;;;21.05;59.08
61870;BME280;47810;42.264;23.826;2023-05-19T08:47:04;94051.16;;;21.01;54.18
61870;BME280;47810;42.264;23.826;2023-05-19T08:49:34;94048.00;;;21.06;56.73
61870;BME280;47810;42.264;23.826;2023-05-19T08:52:07;94044.84;;;21.36;56.66
61870;BME280;47810;42.264;23.826;2023-05-19T08:54:36;94049.25;;;21.46;54.24
61870;BME280;47810;42.264;23.826;2023-05-19T08:57:05;94047.19;;;21.74;56.53
61870;BME280;47810;42.264;23.826;2023-05-19T08:59:35;94046.25;;;21.57;56.18
61870;BME280;47810;42.264;23.826;2023-05-19T09:02:06;94049.59;;;21.16;52.52
61870;BME280;47810;42.264;23.826;2023-05-19T09:04:34;94045.34;;;21.40;49.19
61870;BME280;47810;42.264;23.826;2023-05-19T09:07:02;94036.06;;;21.34;48.11
61870;BME280;47810;42.264;23.826;2023-05-19T09:09:31;94040.47;;;21.86;55.08
61870;BME280;47810;42.264;23.826;2023-05-19T09:12:17;94034.03;;;22.46;50.52
61870;BME280;47810;42.264;23.826;2023-05-19T09:14:43;94025.13;;;22.29;51.54
61870;BME280;47810;42.264;23.826;2023-05-19T09:17:08;94026.13;;;22.20;49.88
61870;BME280;47810;42.264;23.826;2023-05-19T09:19:34;94024.13;;;22.22;47.62
61870;BME280;47810;42.264;23.826;2023-05-19T09:22:00;94028.16;;;22.42;51.82
61870;BME280;47810;42.264;23.826;2023-05-19T09:24:27;94026.78;;;22.87;47.65
61870;BME280;47810;42.264;23.826;2023-05-19T09:26:54;94019.28;;;23.30;51.01
61870;BME280;47810;42.264;23.826;2023-05-19T09:29:21;94009.56;;;23.21;46.54
61870;BME280;47810;42.264;23.826;2023-05-19T09:31:55;94010.84;;;23.41;48.11
61870;BME280;47810;42.264;23.826;2023-05-19T09:34:31;94012.22;;;24.08;48.37
61870;BME280;47810;42.264;23.826;2023-05-19T09:36:57;94011.50;;;24.14;44.49
61870;BME280;47810;42.264;23.826;2023-05-19T09:39:25;94008.25;;;23.56;43.89
61870;BME280;47810;42.264;23.826;2023-05-19T09:41:51;94014.09;;;23.29;46.95
61870;BME280;47810;42.264;23.826;2023-05-19T09:44:24;94009.75;;;23.11;48.04
61870;BME280;47810;42.264;23.826;2023-05-19T09:46:54;94017.56;;;22.57;47.28
61870;BME280;47810;42.264;23.826;2023-05-19T09:49:21;94021.09;;;22.33;48.88
61870;BME280;47810;42.264;23.826;2023-05-19T09:51:53;94019.06;;;22.19;48.27
61870;BME280;47810;42.264;23.826;2023-05-19T09:54:21;94023.72;;;22.00;49.90
61870;BME280;47810;42.264;23.826;2023-05-19T09:57:06;94022.25;;;21.63;50.05
61870;BME280;47810;42.264;23.826;2023-05-19T09:59:35;94023.13;;;21.30;52.13
61870;BME280;47810;42.264;23.826;2023-05-19T10:02:04;94014.50;;;21.52;51.97
61870;BME280;47810;42.264;23.826;2023-05-19T10:04:30;94019.56;;;21.63;51.92
61870;BME280;47810;42.264;23.826;2023-05-19T10:06:56;94020.66;;;21.87;51.31
61870;BME280;47810;42.264;23.826;2023-05-19T10:09:25;94022.97;;;21.66;50.98
61870;BME280;47810;42.264;23.826;2023-05-19T10:11:51;94019.34;;;21.06;51.28
61870;BME280;47810;42.264;23.826;2023-05-19T10:14:22;94019.09;;;21.34;50.70
61870;BME280;47810;42.264;23.826;2023-05-19T10:16:52;94025.06;;;20.59;52.38
61870;BME280;47810;42.264;23.826;2023-05-19T10:19:21;94027.81;;;20.67;53.69
61870;BME280;47810;42.264;23.826;2023-05-19T10:21:47;94027.94;;;20.92;54.21
61870;BME280;47810;42.264;23.826;2023-05-19T10:24:13;94037.28;;;20.80;56.62
61870;BME280;47810;42.264;23.826;2023-05-19T10:26:39;94036.00;;;20.66;54.28
61870;BME280;47810;42.264;23.826;2023-05-19T10:29:07;94051.38;;;20.82;56.09
61870;BME280;47810;42.264;23.826;2023-05-19T10:31:32;94061.06;;;20.75;57.19
61870;BME280;47810;42.264;23.826;2023-05-19T10:36:45;94051.25;;;19.76;52.30
61870;BME280;47810;42.264;23.826;2023-05-19T10:39:16;94050.09;;;19.51;56.08
61870;BME280;47810;42.264;23.826;2023-05-19T10:41:46;94049.78;;;18.99;58.52
61870;BME280;47810;42.264;23.826;2023-05-19T10:44:39;94052.38;;;18.52;62.29
61870;BME280;47810;42.264;23.826;2023-05-19T10:47:10;94050.72;;;18.31;63.26
61870;BME280;47810;42.264;23.826;2023-05-19T10:49:36;94052.41;;;18.23;63.08
61870;BME280;47810;42.264;23.826;2023-05-19T10:52:02;94061.16;;;18.15;62.99
61870;BME280;47810;42.264;23.826;2023-05-19T10:54:43;94055.53;;;17.99;63.16
61870;BME280;47810;42.264;23.826;2023-05-19T10:57:14;94055.94;;;17.94;63.03
61870;BME280;47810;42.264;23.826;2023-05-19T10:59:42;94066.38;;;17.47;62.72
61870;BME280;47810;42.264;23.826;2023-05-19T11:04:56;94078.53;;;17.30;67.29
61870;BME280;47810;42.264;23.826;2023-05-19T11:07:31;94075.78;;;17.41;66.94
61870;BME280;47810;42.264;23.826;2023-05-19T11:09:57;94063.81;;;17.36;66.68
61870;BME280;47810;42.264;23.826;2023-05-19T11:12:23;94063.59;;;17.58;65.78
61870;BME280;47810;42.264;23.826;2023-05-19T11:14:52;94074.41;;;17.57;63.72
61870;BME280;47810;42.264;23.826;2023-05-19T11:17:18;94068.06;;;17.08;64.62
61870;BME280;47810;42.264;23.826;2023-05-19T11:19:55;94072.19;;;17.21;63.47
61870;BME280;47810;42.264;23.826;2023-05-19T11:22:22;94076.94;;;17.08;60.14
61870;BME280;47810;42.264;23.826;2023-05-19T11:24:48;94068.06;;;16.77;61.91
61870;BME280;47810;42.264;23.826;2023-05-19T11:27:20;94061.06;;;16.76;59.36
61870;BME280;47810;42.264;23.826;2023-05-19T11:29:47;94057.63;;;16.74;59.08
61870;BME280;47810;42.264;23.826;2023-05-19T11:32:13;94050.13;;;16.37;64.39
61870;BME280;47810;42.264;23.826;2023-05-19T11:34:39;94034.19;;;16.05;63.98
61870;BME280;47810;42.264;23.826;2023-05-19T11:37:05;94039.16;;;15.77;64.06
61870;BME280;47810;42.264;23.826;2023-05-19T11:39:31;94032.25;;;15.75;65.43
61870;BME280;47810;42.264;23.826;2023-05-19T11:41:56;94035.88;;;16.06;64.14
61870;BME280;47810;42.264;23.826;2023-05-19T11:44:22;94035.31;;;15.70;63.49
61870;BME280;47810;42.264;23.826;2023-05-19T11:46:47;94029.56;;;15.86;62.12
61870;BME280;47810;42.264;23.826;2023-05-19T11:49:13;94037.31;;;15.89;62.90
61870;BME280;47810;42.264;23.826;2023-05-19T11:51:42;94026.88;;;16.18;64.31
61870;BME280;47810;42.264;23.826;2023-05-19T11:54:08;94031.13;;;16.51;59.43
61870;BME280;47810;42.264;23.826;2023-05-19T11:56:38;94033.06;;;16.49;57.27
61870;BME280;47810;42.264;23.826;2023-05-19T11:59:04;94032.94;;;17.03;57.35
61870;BME280;47810;42.264;23.826;2023-05-19T12:01:29;94033.56;;;16.85;55.72
61870;BME280;47810;42.264;23.826;2023-05-19T12:03:56;94033.06;;;17.01;57.26
61870;BME280;47810;42.264;23.826;2023-05-19T12:06:22;94035.28;;;16.86;56.66
61870;BME280;47810;42.264;23.826;2023-05-19T12:08:49;94034.13;;;17.19;56.58
61870;BME280;47810;42.264;23.826;2023-05-19T12:11:15;94023.94;;;17.44;58.54
61870;BME280;47810;42.264;23.826;2023-05-19T12:13:41;94030.72;;;17.58;55.63
61870;BME280;47810;42.264;23.826;2023-05-19T12:16:07;94029.22;;;17.84;57.76
61870;BME280;47810;42.264;23.826;2023-05-19T12:18:35;94023.00;;;18.42;58.14
61870;BME280;47810;42.264;23.826;2023-05-19T12:21:01;94014.91;;;18.71;54.89
61870;BME280;47810;42.264;23.826;2023-05-19T12:23:27;94020.75;;;19.04;51.23
61870;BME280;47810;42.264;23.826;2023-05-19T12:25:55;94006.72;;;19.47;49.91
61870;BME280;47810;42.264;23.826;2023-05-19T12:28:21;94007.16;;;19.70;52.64
61870;BME280;47810;42.264;23.826;2023-05-19T12:30:50;94006.75;;;19.38;54.45
61870;BME280;47810;42.264;23.826;2023-05-19T12:33:17;94010.44;;;19.37;55.51
61870;BME280;47810;42.264;23.826;2023-05-19T12:35:44;94014.50;;;19.41;55.90
61870;BME280;47810;42.264;23.826;2023-05-19T12:38:10;94010.88;;;19.60;54.55
61870;BME280;47810;42.264;23.826;2023-05-19T12:40:36;94010.94;;;19.50;54.09
61870;BME280;47810;42.264;23.826;2023-05-19T12:43:03;94010.25;;;19.20;55.88
61870;BME280;47810;42.264;23.826;2023-05-19T12:45:35;94006.06;;;19.36;57.17
61870;BME280;47810;42.264;23.826;2023-05-19T12:48:03;94008.56;;;19.74;59.73
61870;BME280;47810;42.264;23.826;2023-05-19T12:50:29;94016.88;;;19.89;58.53
61870;BME280;47810;42.264;23.826;2023-05-19T12:52:57;94006.09;;;19.99;55.79
61870;BME280;47810;42.264;23.826;2023-05-19T12:55:24;94007.31;;;20.05;59.08
61870;BME280;47810;42.264;23.826;2023-05-19T12:57:50;94003.63;;;20.23;58.21
61870;BME280;47810;42.264;23.826;2023-05-19T13:00:24;94004.66;;;20.66;55.93
61870;BME280;47810;42.264;23.826;2023-05-19T13:03:02;93997.88;;;21.14;56.30
61870;BME280;47810;42.264;23.826;2023-05-19T13:05:38;94001.63;;;21.30;51.62
61870;BME280;47810;42.264;23.826;2023-05-19T13:08:04;93994.69;;;21.53;48.30
61870;BME280;47810;42.264;23.826;2023-05-19T13:10:31;93992.22;;;21.76;48.76
61870;BME280;47810;42.264;23.826;2023-05-19T13:12:57;93990.44;;;21.93;47.64